sensor_id;sensor_type;location;lat;lon;timestamp;P1;durP1;ratioP1;P2;durP2;ratioP2
41333;SDS011;27078;46.428;6.256;2023-05-07T00:00:37;2.90;;;1.80;;
41333;SDS011;27078;46.428;6.256;2023-05-07T00:03:02;2.88;;;1.77;;
41333;SDS011;27078;46.428;6.256;2023-05-07T00:05:28;3.22;;;1.73;;
41333;SDS011;27078;46.428;6.256;2023-05-07T00:07:53;4.10;;;1.70;;
41333;SDS011;27078;46.428;6.256;2023-05-07T00:10:19;3.42;;;1.65;;
41333;SDS011;27078;46.428;6.256;2023-05-07T00:12:44;3.75;;;1.70;;
41333;SDS011;27078;46.428;6.256;2023-05-07T00:15:10;3.13;;;1.98;;
41333;SDS011;27078;46.428;6.256;2023-05-07T00:17:35;2.65;;;1.80;;
41333;SDS011;27078;46.428;6.256;2023-05-07T00:20:03;4.30;;;1.80;;
41333;SDS011;27078;46.428;6.256;2023-05-07T00:22:30;3.83;;;2.05;;
41333;SDS011;27078;46.428;6.256;2023-05-07T00:24:56;4.05;;;1.80;;
41333;SDS011;27078;46.428;6.256;2023-05-07T00:27:24;4.18;;;1.70;;
41333;SDS011;27078;46.428;6.256;2023-05-07T00:29:49;4.65;;;1.73;;
41333;SDS011;27078;46.428;6.256;2023-05-07T00:32:15;5.18;;;2.25;;
41333;SDS011;27078;46.428;6.256;2023-05-07T00:34:40;3.05;;;2.00;;
41333;SDS011;27078;46.428;6.256;2023-05-07T00:37:06;4.97;;;1.85;;
41333;SDS011;27078;46.428;6.256;2023-05-07T00:39:34;4.32;;;1.80;;
41333;SDS011;27078;46.428;6.256;2023-05-07T00:42:00;2.53;;;1.50;;
41333;SDS011;27078;46.428;6.256;2023-05-07T00:44:26;3.95;;;1.60;;
41333;SDS011;27078;46.428;6.256;2023-05-07T00:46:51;5.25;;;1.80;;
41333;SDS011;27078;46.428;6.256;2023-05-07T00:49:18;2.90;;;1.52;;
41333;SDS011;27078;46.428;6.256;2023-05-07T00:51:45;4.18;;;1.60;;
41333;SDS011;27078;46.428;6.256;2023-05-07T00:54:10;4.05;;;1.85;;
41333;SDS011;27078;46.428;6.256;2023-05-07T00:56:36;4.55;;;1.70;;
41333;SDS011;27078;46.428;6.256;2023-05-07T00:59:02;2.33;;;1.58;;
41333;SDS011;27078;46.428;6.256;2023-05-07T01:01:28;1.80;;;1.52;;
41333;SDS011;27078;46.428;6.256;2023-05-07T01:03:53;5.28;;;1.52;;
41333;SDS011;27078;46.428;6.256;2023-05-07T01:06:19;3.50;;;1.75;;
41333;SDS011;27078;46.428;6.256;2023-05-07T01:08:47;2.92;;;1.52;;
41333;SDS011;27078;46.428;6.256;2023-05-07T01:11:15;4.25;;;1.85;;
41333;SDS011;27078;46.428;6.256;2023-05-07T01:13:42;3.53;;;1.63;;
41333;SDS011;27078;46.428;6.256;2023-05-07T01:16:08;4.70;;;1.85;;
41333;SDS011;27078;46.428;6.256;2023-05-07T01:18:34;2.85;;;1.83;;
41333;SDS011;27078;46.428;6.256;2023-05-07T01:21:00;2.90;;;1.77;;
41333;SDS011;27078;46.428;6.256;2023-05-07T01:23:28;5.50;;;2.00;;
41333;SDS011;27078;46.428;6.256;2023-05-07T01:25:55;3.30;;;2.00;;
41333;SDS011;27078;46.428;6.256;2023-05-07T01:28:21;5.20;;;1.90;;
41333;SDS011;27078;46.428;6.256;2023-05-07T01:30:48;4.55;;;1.92;;
41333;SDS011;27078;46.428;6.256;2023-05-07T01:33:20;2.90;;;1.80;;
41333;SDS011;27078;46.428;6.256;2023-05-07T01:35:47;3.78;;;2.00;;
41333;SDS011;27078;46.428;6.256;2023-05-07T01:38:15;5.82;;;2.10;;
41333;SDS011;27078;46.428;6.256;2023-05-07T01:40:41;4.38;;;1.95;;
41333;SDS011;27078;46.428;6.256;2023-05-07T01:43:07;2.83;;;1.70;;
41333;SDS011;27078;46.428;6.256;2023-05-07T01:45:32;4.53;;;1.88;;
41333;SDS011;27078;46.428;6.256;2023-05-07T01:47:59;4.38;;;1.90;;
41333;SDS011;27078;46.428;6.256;2023-05-07T01:50:25;3.03;;;2.15;;
41333;SDS011;27078;46.428;6.256;2023-05-07T01:52:51;4.32;;;1.95;;
41333;SDS011;27078;46.428;6.256;2023-05-07T01:55:17;2.88;;;2.00;;
41333;SDS011;27078;46.428;6.256;2023-05-07T01:57:43;3.25;;;2.00;;
41333;SDS011;27078;46.428;6.256;2023-05-07T02:00:08;5.63;;;2.33;;
41333;SDS011;27078;46.428;6.256;2023-05-07T02:02:34;3.90;;;2.30;;
41333;SDS011;27078;46.428;6.256;2023-05-07T02:05:00;3.35;;;1.92;;
41333;SDS011;27078;46.428;6.256;2023-05-07T02:07:26;3.60;;;2.22;;
41333;SDS011;27078;46.428;6.256;2023-05-07T02:09:52;4.65;;;2.35;;
41333;SDS011;27078;46.428;6.256;2023-05-07T02:12:17;4.07;;;2.53;;
41333;SDS011;27078;46.428;6.256;2023-05-07T02:14:43;2.78;;;1.92;;
41333;SDS011;27078;46.428;6.256;2023-05-07T02:17:08;4.70;;;2.33;;
41333;SDS011;27078;46.428;6.256;2023-05-07T02:19:33;5.03;;;2.67;;
41333;SDS011;27078;46.428;6.256;2023-05-07T02:21:59;3.13;;;2.30;;
41333;SDS011;27078;46.428;6.256;2023-05-07T02:24:24;4.20;;;2.20;;
41333;SDS011;27078;46.428;6.256;2023-05-07T02:26:49;3.60;;;2.22;;
41333;SDS011;27078;46.428;6.256;2023-05-07T02:29:15;4.13;;;1.90;;
41333;SDS011;27078;46.428;6.256;2023-05-07T02:31:40;5.13;;;2.45;;
41333;SDS011;27078;46.428;6.256;2023-05-07T02:34:05;3.28;;;2.40;;
41333;SDS011;27078;46.428;6.256;2023-05-07T02:36:31;3.83;;;2.28;;
41333;SDS011;27078;46.428;6.256;2023-05-07T02:38:56;5.47;;;2.22;;
41333;SDS011;27078;46.428;6.256;2023-05-07T02:41:22;3.60;;;2.22;;
41333;SDS011;27078;46.428;6.256;2023-05-07T02:43:47;3.60;;;2.60;;
41333;SDS011;27078;46.428;6.256;2023-05-07T02:46:12;3.72;;;2.15;;
41333;SDS011;27078;46.428;6.256;2023-05-07T02:48:37;3.70;;;2.00;;
41333;SDS011;27078;46.428;6.256;2023-05-07T02:51:03;3.85;;;2.15;;
41333;SDS011;27078;46.428;6.256;2023-05-07T02:53:30;4.28;;;2.20;;
41333;SDS011;27078;46.428;6.256;2023-05-07T02:55:56;5.07;;;2.17;;
41333;SDS011;27078;46.428;6.256;2023-05-07T02:58:22;3.30;;;2.22;;
41333;SDS011;27078;46.428;6.256;2023-05-07T03:00:48;4.30;;;2.20;;
41333;SDS011;27078;46.428;6.256;2023-05-07T03:03:13;4.30;;;2.10;;
41333;SDS011;27078;46.428;6.256;2023-05-07T03:05:39;5.60;;;2.28;;
41333;SDS011;27078;46.428;6.256;2023-05-07T03:08:05;5.05;;;2.25;;
41333;SDS011;27078;46.428;6.256;2023-05-07T03:10:30;4.45;;;1.92;;
41333;SDS011;27078;46.428;6.256;2023-05-07T03:12:55;5.53;;;2.08;;
41333;SDS011;27078;46.428;6.256;2023-05-07T03:15:21;4.05;;;2.38;;
41333;SDS011;27078;46.428;6.256;2023-05-07T03:17:46;5.32;;;2.33;;
41333;SDS011;27078;46.428;6.256;2023-05-07T03:20:12;3.40;;;2.20;;
41333;SDS011;27078;46.428;6.256;2023-05-07T03:22:38;4.28;;;2.10;;
41333;SDS011;27078;46.428;6.256;2023-05-07T03:25:04;3.88;;;2.08;;
41333;SDS011;27078;46.428;6.256;2023-05-07T03:27:29;3.60;;;2.08;;
41333;SDS011;27078;46.428;6.256;2023-05-07T03:29:55;5.35;;;2.30;;
41333;SDS011;27078;46.428;6.256;2023-05-07T03:32:20;4.40;;;2.20;;
41333;SDS011;27078;46.428;6.256;2023-05-07T03:34:46;5.35;;;2.30;;
41333;SDS011;27078;46.428;6.256;2023-05-07T03:37:11;3.35;;;2.10;;
41333;SDS011;27078;46.428;6.256;2023-05-07T03:39:36;4.00;;;2.30;;
41333;SDS011;27078;46.428;6.256;2023-05-07T03:42:01;5.10;;;2.40;;
41333;SDS011;27078;46.428;6.256;2023-05-07T03:44:27;7.32;;;2.42;;
41333;SDS011;27078;46.428;6.256;2023-05-07T03:46:53;5.82;;;2.53;;
41333;SDS011;27078;46.428;6.256;2023-05-07T03:49:18;5.00;;;2.70;;
41333;SDS011;27078;46.428;6.256;2023-05-07T03:51:43;4.95;;;2.47;;
41333;SDS011;27078;46.428;6.256;2023-05-07T03:54:09;4.50;;;2.58;;
41333;SDS011;27078;46.428;6.256;2023-05-07T03:56:34;5.55;;;2.60;;
41333;SDS011;27078;46.428;6.256;2023-05-07T03:59:00;4.38;;;2.50;;
41333;SDS011;27078;46.428;6.256;2023-05-07T04:01:26;3.97;;;2.33;;
41333;SDS011;27078;46.428;6.256;2023-05-07T04:03:51;4.72;;;2.25;;
41333;SDS011;27078;46.428;6.256;2023-05-07T04:06:17;5.05;;;2.53;;
41333;SDS011;27078;46.428;6.256;2023-05-07T04:08:42;6.28;;;2.30;;
41333;SDS011;27078;46.428;6.256;2023-05-07T04:11:08;3.65;;;2.35;;
41333;SDS011;27078;46.428;6.256;2023-05-07T04:13:33;7.18;;;2.55;;
41333;SDS011;27078;46.428;6.256;2023-05-07T04:16:00;3.25;;;2.17;;
41333;SDS011;27078;46.428;6.256;2023-05-07T04:18:27;3.33;;;1.88;;
41333;SDS011;27078;46.428;6.256;2023-05-07T04:20:53;3.90;;;2.00;;
41333;SDS011;27078;46.428;6.256;2023-05-07T04:23:18;3.95;;;2.17;;
41333;SDS011;27078;46.428;6.256;2023-05-07T04:25:43;4.22;;;2.20;;
41333;SDS011;27078;46.428;6.256;2023-05-07T04:28:09;3.97;;;2.05;;
41333;SDS011;27078;46.428;6.256;2023-05-07T04:30:34;2.25;;;1.88;;
41333;SDS011;27078;46.428;6.256;2023-05-07T04:32:59;4.97;;;2.20;;
41333;SDS011;27078;46.428;6.256;2023-05-07T04:35:25;3.15;;;2.10;;
41333;SDS011;27078;46.428;6.256;2023-05-07T04:37:50;6.47;;;2.15;;
41333;SDS011;27078;46.428;6.256;2023-05-07T04:40:15;3.72;;;1.98;;
41333;SDS011;27078;46.428;6.256;2023-05-07T04:42:41;3.58;;;2.03;;
41333;SDS011;27078;46.428;6.256;2023-05-07T04:45:06;4.40;;;2.28;;
41333;SDS011;27078;46.428;6.256;2023-05-07T04:47:33;4.45;;;2.38;;
41333;SDS011;27078;46.428;6.256;2023-05-07T04:49:59;3.95;;;2.22;;
41333;SDS011;27078;46.428;6.256;2023-05-07T04:52:24;4.57;;;2.10;;
41333;SDS011;27078;46.428;6.256;2023-05-07T04:54:49;6.50;;;2.20;;
41333;SDS011;27078;46.428;6.256;2023-05-07T04:57:15;5.68;;;2.30;;
41333;SDS011;27078;46.428;6.256;2023-05-07T04:59:41;4.70;;;2.30;;
41333;SDS011;27078;46.428;6.256;2023-05-07T05:02:07;5.20;;;2.33;;
41333;SDS011;27078;46.428;6.256;2023-05-07T05:04:32;3.22;;;2.05;;
41333;SDS011;27078;46.428;6.256;2023-05-07T05:06:58;3.30;;;2.30;;
41333;SDS011;27078;46.428;6.256;2023-05-07T05:09:23;4.10;;;2.42;;
41333;SDS011;27078;46.428;6.256;2023-05-07T05:11:48;3.05;;;2.58;;
41333;SDS011;27078;46.428;6.256;2023-05-07T05:14:14;4.43;;;2.40;;
41333;SDS011;27078;46.428;6.256;2023-05-07T05:16:39;5.25;;;2.50;;
41333;SDS011;27078;46.428;6.256;2023-05-07T05:19:04;6.22;;;2.70;;
41333;SDS011;27078;46.428;6.256;2023-05-07T05:21:30;5.93;;;2.80;;
41333;SDS011;27078;46.428;6.256;2023-05-07T05:23:56;5.30;;;2.42;;
41333;SDS011;27078;46.428;6.256;2023-05-07T05:26:21;4.85;;;2.50;;
41333;SDS011;27078;46.428;6.256;2023-05-07T05:28:47;7.55;;;2.60;;
41333;SDS011;27078;46.428;6.256;2023-05-07T05:31:12;4.53;;;2.35;;
41333;SDS011;27078;46.428;6.256;2023-05-07T05:33:39;5.32;;;2.53;;
41333;SDS011;27078;46.428;6.256;2023-05-07T05:36:05;4.90;;;2.55;;
41333;SDS011;27078;46.428;6.256;2023-05-07T05:38:31;4.80;;;2.83;;
41333;SDS011;27078;46.428;6.256;2023-05-07T05:40:56;4.85;;;2.70;;
41333;SDS011;27078;46.428;6.256;2023-05-07T05:43:21;5.32;;;2.63;;
41333;SDS011;27078;46.428;6.256;2023-05-07T05:45:47;5.57;;;3.08;;
41333;SDS011;27078;46.428;6.256;2023-05-07T05:48:12;4.13;;;2.67;;
41333;SDS011;27078;46.428;6.256;2023-05-07T05:50:37;3.38;;;2.65;;
41333;SDS011;27078;46.428;6.256;2023-05-07T05:53:03;4.75;;;2.45;;
41333;SDS011;27078;46.428;6.256;2023-05-07T05:55:28;4.30;;;2.63;;
41333;SDS011;27078;46.428;6.256;2023-05-07T05:57:54;4.22;;;2.30;;
41333;SDS011;27078;46.428;6.256;2023-05-07T06:00:19;4.50;;;2.67;;
41333;SDS011;27078;46.428;6.256;2023-05-07T06:02:47;3.22;;;2.47;;
41333;SDS011;27078;46.428;6.256;2023-05-07T06:05:13;3.95;;;2.90;;
41333;SDS011;27078;46.428;6.256;2023-05-07T06:07:38;4.70;;;2.60;;
41333;SDS011;27078;46.428;6.256;2023-05-07T06:10:03;4.50;;;2.90;;
41333;SDS011;27078;46.428;6.256;2023-05-07T06:12:29;4.38;;;3.00;;
41333;SDS011;27078;46.428;6.256;2023-05-07T06:14:54;5.88;;;3.25;;
41333;SDS011;27078;46.428;6.256;2023-05-07T06:17:20;7.00;;;3.35;;
41333;SDS011;27078;46.428;6.256;2023-05-07T06:19:45;4.00;;;3.10;;
41333;SDS011;27078;46.428;6.256;2023-05-07T06:22:10;5.47;;;3.67;;
41333;SDS011;27078;46.428;6.256;2023-05-07T06:24:36;5.30;;;3.63;;
41333;SDS011;27078;46.428;6.256;2023-05-07T06:27:01;5.57;;;3.40;;
41333;SDS011;27078;46.428;6.256;2023-05-07T06:29:26;7.35;;;3.72;;
41333;SDS011;27078;46.428;6.256;2023-05-07T06:31:55;5.72;;;3.75;;
41333;SDS011;27078;46.428;6.256;2023-05-07T06:34:20;5.97;;;3.85;;
41333;SDS011;27078;46.428;6.256;2023-05-07T06:36:46;6.43;;;3.80;;
41333;SDS011;27078;46.428;6.256;2023-05-07T06:39:11;5.82;;;4.10;;
41333;SDS011;27078;46.428;6.256;2023-05-07T06:41:37;4.80;;;4.10;;
41333;SDS011;27078;46.428;6.256;2023-05-07T06:44:02;4.82;;;3.78;;
41333;SDS011;27078;46.428;6.256;2023-05-07T06:46:28;6.35;;;4.03;;
41333;SDS011;27078;46.428;6.256;2023-05-07T06:48:54;5.97;;;4.60;;
41333;SDS011;27078;46.428;6.256;2023-05-07T06:51:19;7.63;;;4.53;;
41333;SDS011;27078;46.428;6.256;2023-05-07T06:53:45;5.60;;;4.28;;
41333;SDS011;27078;46.428;6.256;2023-05-07T06:56:10;6.32;;;4.20;;
41333;SDS011;27078;46.428;6.256;2023-05-07T06:58:35;6.28;;;4.20;;
41333;SDS011;27078;46.428;6.256;2023-05-07T07:01:02;7.38;;;4.78;;
41333;SDS011;27078;46.428;6.256;2023-05-07T07:03:27;5.43;;;3.95;;
41333;SDS011;27078;46.428;6.256;2023-05-07T07:05:52;4.85;;;3.80;;
41333;SDS011;27078;46.428;6.256;2023-05-07T07:08:18;6.20;;;4.03;;
41333;SDS011;27078;46.428;6.256;2023-05-07T07:10:46;5.95;;;4.00;;
41333;SDS011;27078;46.428;6.256;2023-05-07T07:13:11;5.15;;;3.70;;
41333;SDS011;27078;46.428;6.256;2023-05-07T07:15:36;7.82;;;3.95;;
41333;SDS011;27078;46.428;6.256;2023-05-07T07:18:02;6.30;;;3.88;;
41333;SDS011;27078;46.428;6.256;2023-05-07T07:20:27;6.70;;;3.65;;
41333;SDS011;27078;46.428;6.256;2023-05-07T07:22:52;7.28;;;4.07;;
41333;SDS011;27078;46.428;6.256;2023-05-07T07:25:18;7.28;;;3.97;;
41333;SDS011;27078;46.428;6.256;2023-05-07T07:27:43;8.02;;;3.85;;
41333;SDS011;27078;46.428;6.256;2023-05-07T07:30:10;6.65;;;4.10;;
41333;SDS011;27078;46.428;6.256;2023-05-07T07:32:35;9.32;;;4.13;;
41333;SDS011;27078;46.428;6.256;2023-05-07T07:35:00;6.57;;;4.10;;
41333;SDS011;27078;46.428;6.256;2023-05-07T07:37:26;5.90;;;3.78;;
41333;SDS011;27078;46.428;6.256;2023-05-07T07:39:52;5.95;;;3.25;;
41333;SDS011;27078;46.428;6.256;2023-05-07T07:42:17;6.65;;;3.70;;
41333;SDS011;27078;46.428;6.256;2023-05-07T07:44:43;5.47;;;3.20;;
41333;SDS011;27078;46.428;6.256;2023-05-07T07:47:09;7.05;;;4.00;;
41333;SDS011;27078;46.428;6.256;2023-05-07T07:49:34;4.55;;;3.60;;
41333;SDS011;27078;46.428;6.256;2023-05-07T07:52:00;6.25;;;3.72;;
41333;SDS011;27078;46.428;6.256;2023-05-07T07:54:25;5.65;;;3.70;;
41333;SDS011;27078;46.428;6.256;2023-05-07T07:56:51;5.90;;;3.30;;
41333;SDS011;27078;46.428;6.256;2023-05-07T07:59:17;7.32;;;3.50;;
41333;SDS011;27078;46.428;6.256;2023-05-07T08:01:44;6.32;;;3.15;;
41333;SDS011;27078;46.428;6.256;2023-05-07T08:04:09;5.00;;;3.03;;
41333;SDS011;27078;46.428;6.256;2023-05-07T08:06:35;5.32;;;3.10;;
41333;SDS011;27078;46.428;6.256;2023-05-07T08:09:01;5.07;;;2.70;;
41333;SDS011;27078;46.428;6.256;2023-05-07T08:11:27;5.20;;;2.85;;
41333;SDS011;27078;46.428;6.256;2023-05-07T08:13:53;5.65;;;3.17;;
41333;SDS011;27078;46.428;6.256;2023-05-07T08:16:19;5.88;;;3.10;;
41333;SDS011;27078;46.428;6.256;2023-05-07T08:18:44;5.75;;;3.30;;
41333;SDS011;27078;46.428;6.256;2023-05-07T08:21:10;5.03;;;3.22;;
41333;SDS011;27078;46.428;6.256;2023-05-07T08:23:35;7.22;;;3.47;;
41333;SDS011;27078;46.428;6.256;2023-05-07T08:26:01;4.30;;;3.05;;
41333;SDS011;27078;46.428;6.256;2023-05-07T08:28:26;5.57;;;3.22;;
41333;SDS011;27078;46.428;6.256;2023-05-07T08:30:52;6.15;;;3.50;;
41333;SDS011;27078;46.428;6.256;2023-05-07T08:33:17;5.15;;;3.33;;
41333;SDS011;27078;46.428;6.256;2023-05-07T08:35:42;5.05;;;3.00;;
41333;SDS011;27078;46.428;6.256;2023-05-07T08:38:08;5.65;;;3.20;;
41333;SDS011;27078;46.428;6.256;2023-05-07T08:40:42;8.48;;;3.50;;
41333;SDS011;27078;46.428;6.256;2023-05-07T08:43:07;6.57;;;3.30;;
41333;SDS011;27078;46.428;6.256;2023-05-07T08:45:33;5.22;;;3.20;;
41333;SDS011;27078;46.428;6.256;2023-05-07T08:48:01;7.97;;;3.30;;
41333;SDS011;27078;46.428;6.256;2023-05-07T08:50:29;4.72;;;2.97;;
41333;SDS011;27078;46.428;6.256;2023-05-07T08:52:55;4.40;;;3.08;;
41333;SDS011;27078;46.428;6.256;2023-05-07T08:55:21;5.35;;;3.13;;
41333;SDS011;27078;46.428;6.256;2023-05-07T08:57:47;6.18;;;3.42;;
41333;SDS011;27078;46.428;6.256;2023-05-07T09:00:13;3.30;;;2.97;;
41333;SDS011;27078;46.428;6.256;2023-05-07T09:02:39;4.45;;;3.20;;
41333;SDS011;27078;46.428;6.256;2023-05-07T09:05:05;4.93;;;2.70;;
41333;SDS011;27078;46.428;6.256;2023-05-07T09:07:31;5.10;;;3.08;;
41333;SDS011;27078;46.428;6.256;2023-05-07T09:09:56;4.65;;;3.00;;
41333;SDS011;27078;46.428;6.256;2023-05-07T09:12:22;5.05;;;3.10;;
41333;SDS011;27078;46.428;6.256;2023-05-07T09:14:48;6.07;;;2.80;;
41333;SDS011;27078;46.428;6.256;2023-05-07T09:17:17;4.30;;;2.90;;
41333;SDS011;27078;46.428;6.256;2023-05-07T09:19:43;6.15;;;3.13;;
41333;SDS011;27078;46.428;6.256;2023-05-07T09:22:10;7.18;;;3.05;;
41333;SDS011;27078;46.428;6.256;2023-05-07T09:24:36;4.35;;;2.92;;
41333;SDS011;27078;46.428;6.256;2023-05-07T09:27:03;5.78;;;2.88;;
41333;SDS011;27078;46.428;6.256;2023-05-07T09:29:29;6.00;;;2.90;;
41333;SDS011;27078;46.428;6.256;2023-05-07T09:32:00;5.05;;;2.70;;
41333;SDS011;27078;46.428;6.256;2023-05-07T09:34:34;4.68;;;2.20;;
41333;SDS011;27078;46.428;6.256;2023-05-07T09:37:00;4.50;;;2.30;;
41333;SDS011;27078;46.428;6.256;2023-05-07T09:39:38;3.80;;;2.40;;
41333;SDS011;27078;46.428;6.256;2023-05-07T09:42:04;12.13;;;4.93;;
41333;SDS011;27078;46.428;6.256;2023-05-07T09:44:31;7.13;;;3.50;;
41333;SDS011;27078;46.428;6.256;2023-05-07T09:46:57;5.20;;;2.88;;
41333;SDS011;27078;46.428;6.256;2023-05-07T09:49:25;6.47;;;3.60;;
41333;SDS011;27078;46.428;6.256;2023-05-07T09:51:55;4.50;;;3.10;;
41333;SDS011;27078;46.428;6.256;2023-05-07T09:54:20;4.85;;;2.70;;
41333;SDS011;27078;46.428;6.256;2023-05-07T09:56:46;9.85;;;5.13;;
41333;SDS011;27078;46.428;6.256;2023-05-07T09:59:14;4.63;;;2.83;;
41333;SDS011;27078;46.428;6.256;2023-05-07T10:01:41;5.25;;;2.42;;
41333;SDS011;27078;46.428;6.256;2023-05-07T10:04:08;3.40;;;2.30;;
41333;SDS011;27078;46.428;6.256;2023-05-07T10:06:34;3.13;;;2.10;;
41333;SDS011;27078;46.428;6.256;2023-05-07T10:09:00;3.92;;;2.10;;
41333;SDS011;27078;46.428;6.256;2023-05-07T10:11:27;5.03;;;2.00;;
41333;SDS011;27078;46.428;6.256;2023-05-07T10:13:53;5.78;;;2.13;;
41333;SDS011;27078;46.428;6.256;2023-05-07T10:16:18;5.10;;;2.40;;
41333;SDS011;27078;46.428;6.256;2023-05-07T10:18:44;8.75;;;2.55;;
41333;SDS011;27078;46.428;6.256;2023-05-07T10:21:11;6.50;;;2.60;;
41333;SDS011;27078;46.428;6.256;2023-05-07T10:23:44;5.57;;;2.70;;
41333;SDS011;27078;46.428;6.256;2023-05-07T10:26:10;4.93;;;2.50;;
41333;SDS011;27078;46.428;6.256;2023-05-07T10:28:39;6.38;;;2.63;;
41333;SDS011;27078;46.428;6.256;2023-05-07T10:31:29;4.10;;;2.65;;
41333;SDS011;27078;46.428;6.256;2023-05-07T10:34:16;4.82;;;2.40;;
41333;SDS011;27078;46.428;6.256;2023-05-07T10:36:46;4.35;;;2.60;;
41333;SDS011;27078;46.428;6.256;2023-05-07T10:39:13;5.07;;;2.58;;
41333;SDS011;27078;46.428;6.256;2023-05-07T10:41:39;6.25;;;2.72;;
41333;SDS011;27078;46.428;6.256;2023-05-07T10:44:04;4.75;;;2.30;;
41333;SDS011;27078;46.428;6.256;2023-05-07T10:46:30;3.85;;;2.25;;
41333;SDS011;27078;46.428;6.256;2023-05-07T10:51:27;5.18;;;2.40;;
41333;SDS011;27078;46.428;6.256;2023-05-07T10:56:48;4.22;;;2.45;;
41333;SDS011;27078;46.428;6.256;2023-05-07T11:04:28;41.10;;;6.30;;
41333;SDS011;27078;46.428;6.256;2023-05-07T11:12:43;6.22;;;2.78;;
41333;SDS011;27078;46.428;6.256;2023-05-07T11:15:09;4.72;;;2.40;;
41333;SDS011;27078;46.428;6.256;2023-05-07T11:17:54;8.57;;;2.38;;
41333;SDS011;27078;46.428;6.256;2023-05-07T11:20:43;2.20;;;1.10;;
41333;SDS011;27078;46.428;6.256;2023-05-07T11:26:09;1.48;;;0.80;;
41333;SDS011;27078;46.428;6.256;2023-05-07T11:28:39;1.02;;;0.50;;
41333;SDS011;27078;46.428;6.256;2023-05-07T11:31:06;1.70;;;0.65;;
41333;SDS011;27078;46.428;6.256;2023-05-07T11:33:32;1.58;;;0.50;;
41333;SDS011;27078;46.428;6.256;2023-05-07T11:35:59;3.42;;;1.58;;
41333;SDS011;27078;46.428;6.256;2023-05-07T11:38:25;8.40;;;3.22;;
41333;SDS011;27078;46.428;6.256;2023-05-07T11:43:20;2.40;;;0.90;;
41333;SDS011;27078;46.428;6.256;2023-05-07T11:45:45;1.33;;;0.63;;
41333;SDS011;27078;46.428;6.256;2023-05-07T11:48:15;5.60;;;0.57;;
41333;SDS011;27078;46.428;6.256;2023-05-07T11:50:59;1.92;;;0.55;;
41333;SDS011;27078;46.428;6.256;2023-05-07T11:53:26;3.05;;;1.45;;
41333;SDS011;27078;46.428;6.256;2023-05-07T11:55:52;3.22;;;0.80;;
41333;SDS011;27078;46.428;6.256;2023-05-07T11:58:21;0.82;;;0.40;;
41333;SDS011;27078;46.428;6.256;2023-05-07T12:00:48;1.75;;;0.52;;
41333;SDS011;27078;46.428;6.256;2023-05-07T12:03:16;1.35;;;0.60;;
41333;SDS011;27078;46.428;6.256;2023-05-07T12:05:43;1.10;;;0.50;;
41333;SDS011;27078;46.428;6.256;2023-05-07T12:08:15;1.52;;;0.50;;
41333;SDS011;27078;46.428;6.256;2023-05-07T12:10:41;1.38;;;0.40;;
41333;SDS011;27078;46.428;6.256;2023-05-07T12:13:20;0.98;;;0.40;;
41333;SDS011;27078;46.428;6.256;2023-05-07T12:15:50;4.38;;;1.50;;
41333;SDS011;27078;46.428;6.256;2023-05-07T12:18:17;2.88;;;0.90;;
41333;SDS011;27078;46.428;6.256;2023-05-07T12:20:42;0.77;;;0.38;;
41333;SDS011;27078;46.428;6.256;2023-05-07T12:23:08;0.82;;;0.40;;
41333;SDS011;27078;46.428;6.256;2023-05-07T12:28:21;1.58;;;0.50;;
41333;SDS011;27078;46.428;6.256;2023-05-07T12:30:47;1.95;;;0.75;;
41333;SDS011;27078;46.428;6.256;2023-05-07T12:33:17;1.10;;;0.40;;
41333;SDS011;27078;46.428;6.256;2023-05-07T12:35:43;0.75;;;0.40;;
41333;SDS011;27078;46.428;6.256;2023-05-07T12:38:09;1.38;;;0.57;;
41333;SDS011;27078;46.428;6.256;2023-05-07T12:40:38;1.15;;;0.40;;
41333;SDS011;27078;46.428;6.256;2023-05-07T12:43:05;1.50;;;0.40;;
41333;SDS011;27078;46.428;6.256;2023-05-07T12:45:31;0.93;;;0.30;;
41333;SDS011;27078;46.428;6.256;2023-05-07T12:47:56;0.68;;;0.40;;
41333;SDS011;27078;46.428;6.256;2023-05-07T12:50:30;1.80;;;0.57;;
41333;SDS011;27078;46.428;6.256;2023-05-07T12:52:56;1.27;;;0.40;;
41333;SDS011;27078;46.428;6.256;2023-05-07T12:55:22;0.75;;;0.38;;
41333;SDS011;27078;46.428;6.256;2023-05-07T12:57:48;3.78;;;1.30;;
41333;SDS011;27078;46.428;6.256;2023-05-07T13:00:15;1.52;;;0.70;;
41333;SDS011;27078;46.428;6.256;2023-05-07T13:02:41;2.60;;;1.00;;
41333;SDS011;27078;46.428;6.256;2023-05-07T13:05:09;2.35;;;1.30;;
41333;SDS011;27078;46.428;6.256;2023-05-07T13:07:35;3.40;;;1.73;;
41333;SDS011;27078;46.428;6.256;2023-05-07T13:10:01;2.95;;;2.00;;
41333;SDS011;27078;46.428;6.256;2023-05-07T13:12:27;3.80;;;1.80;;
41333;SDS011;27078;46.428;6.256;2023-05-07T13:14:53;2.83;;;2.10;;
41333;SDS011;27078;46.428;6.256;2023-05-07T13:17:18;4.07;;;2.10;;
41333;SDS011;27078;46.428;6.256;2023-05-07T13:19:44;4.88;;;1.60;;
41333;SDS011;27078;46.428;6.256;2023-05-07T13:22:09;3.40;;;1.90;;
41333;SDS011;27078;46.428;6.256;2023-05-07T13:24:34;4.68;;;2.22;;
41333;SDS011;27078;46.428;6.256;2023-05-07T13:27:00;5.80;;;1.80;;
41333;SDS011;27078;46.428;6.256;2023-05-07T13:29:25;2.65;;;1.48;;
41333;SDS011;27078;46.428;6.256;2023-05-07T13:31:56;3.90;;;1.35;;
41333;SDS011;27078;46.428;6.256;2023-05-07T13:34:21;3.25;;;1.77;;
41333;SDS011;27078;46.428;6.256;2023-05-07T13:36:47;3.70;;;1.77;;
41333;SDS011;27078;46.428;6.256;2023-05-07T13:39:12;4.00;;;2.00;;
41333;SDS011;27078;46.428;6.256;2023-05-07T13:41:37;4.90;;;1.92;;
41333;SDS011;27078;46.428;6.256;2023-05-07T13:44:03;5.15;;;1.83;;
41333;SDS011;27078;46.428;6.256;2023-05-07T13:46:29;4.22;;;2.42;;
41333;SDS011;27078;46.428;6.256;2023-05-07T13:48:54;3.95;;;2.00;;
41333;SDS011;27078;46.428;6.256;2023-05-07T13:51:20;2.90;;;1.90;;
41333;SDS011;27078;46.428;6.256;2023-05-07T13:53:46;4.13;;;2.20;;
41333;SDS011;27078;46.428;6.256;2023-05-07T13:56:12;5.50;;;1.92;;
41333;SDS011;27078;46.428;6.256;2023-05-07T13:58:37;4.85;;;2.00;;
41333;SDS011;27078;46.428;6.256;2023-05-07T14:01:03;4.13;;;1.70;;
41333;SDS011;27078;46.428;6.256;2023-05-07T14:03:28;2.45;;;1.50;;
41333;SDS011;27078;46.428;6.256;2023-05-07T14:05:54;3.70;;;1.50;;
41333;SDS011;27078;46.428;6.256;2023-05-07T14:08:20;3.05;;;1.70;;
41333;SDS011;27078;46.428;6.256;2023-05-07T14:10:46;3.33;;;1.38;;
41333;SDS011;27078;46.428;6.256;2023-05-07T14:13:11;3.63;;;1.40;;
41333;SDS011;27078;46.428;6.256;2023-05-07T14:15:36;2.83;;;1.65;;
41333;SDS011;27078;46.428;6.256;2023-05-07T14:18:02;2.47;;;1.30;;
41333;SDS011;27078;46.428;6.256;2023-05-07T14:20:28;2.90;;;1.45;;
41333;SDS011;27078;46.428;6.256;2023-05-07T14:22:55;3.13;;;1.23;;
41333;SDS011;27078;46.428;6.256;2023-05-07T14:25:21;2.55;;;1.50;;
41333;SDS011;27078;46.428;6.256;2023-05-07T14:27:46;3.65;;;1.40;;
41333;SDS011;27078;46.428;6.256;2023-05-07T14:30:11;3.47;;;1.63;;
41333;SDS011;27078;46.428;6.256;2023-05-07T14:32:37;2.55;;;1.40;;
41333;SDS011;27078;46.428;6.256;2023-05-07T14:35:02;2.33;;;1.50;;
41333;SDS011;27078;46.428;6.256;2023-05-07T14:37:28;4.90;;;1.60;;
41333;SDS011;27078;46.428;6.256;2023-05-07T14:39:59;3.08;;;1.60;;
41333;SDS011;27078;46.428;6.256;2023-05-07T14:42:24;2.67;;;1.40;;
41333;SDS011;27078;46.428;6.256;2023-05-07T14:44:50;2.28;;;1.52;;
41333;SDS011;27078;46.428;6.256;2023-05-07T14:47:15;2.47;;;1.50;;
41333;SDS011;27078;46.428;6.256;2023-05-07T14:49:41;2.20;;;1.50;;
41333;SDS011;27078;46.428;6.256;2023-05-07T14:52:07;5.00;;;1.73;;
41333;SDS011;27078;46.428;6.256;2023-05-07T14:54:34;2.50;;;1.60;;
41333;SDS011;27078;46.428;6.256;2023-05-07T14:57:00;3.10;;;1.90;;
41333;SDS011;27078;46.428;6.256;2023-05-07T14:59:26;3.13;;;1.70;;
41333;SDS011;27078;46.428;6.256;2023-05-07T15:01:52;2.97;;;1.80;;
41333;SDS011;27078;46.428;6.256;2023-05-07T15:04:17;3.70;;;1.70;;
41333;SDS011;27078;46.428;6.256;2023-05-07T15:06:42;3.08;;;1.80;;